Terminal Aerodrome Forecast
Issued by NWS

Home | Current Version | Previous Version | Text Only | Print | Product List | Glossary On
Versions: 1 2 3 4 5 6 7 8 9 10 11 12 13 14 15 16
000
FTUS41 KAKQ 192300
TAFPHF
TAF
KPHF 192340Z 2000/2024 05005KT P6SM SCT025 BKN100
      TEMPO 2000/2004 BKN015 OVC030
     FM200400 04003KT P6SM OVC015
     FM200800 03004KT 3SM BR OVC006
     FM201500 05005KT P6SM OVC025
     FM201700 08007KT P6SM BKN040=

USA.gov is the U.S. government's official web portal to all federal, state and local government web resources and services.